Time;durP1;ratioP1;P1;durP2;ratioP2;P2;SDS_P1;SDS_P2;PMS_P1;PMS_P2;Temp;Humidity;BMP_temperature;BMP_pressure;BME280_temperature;BME280_humidity;BME280_pressure;Samples;Min_cycle;Max_cycle;Signal;HPM_P1;HPM_P2
2022/03/16 05:14:17;;;;;;;3.47;3.17;;;4.00;99.90;;;;;;6036586;22;20172;-66
2022/03/16 05:16:44;;;;;;;3.50;3.30;;;4.00;99.90;;;;;;5053017;28;20240;-66
2022/03/16 05:19:11;;;;;;;3.28;2.97;;;4.00;99.90;;;;;;5052851;28;20247;-66
2022/03/16 05:21:38;;;;;;;3.72;3.40;;;4.00;99.90;;;;;;5052840;28;20235;-66
2022/03/16 05:24:05;;;;;;;5.60;4.50;;;3.90;99.90;;;;;;5053198;28;20263;-65
2022/03/16 05:26:32;;;;;;;5.95;4.50;;;3.90;99.90;;;;;;5053714;28;20232;-65
2022/03/16 05:28:59;;;;;;;9.10;6.35;;;3.90;99.90;;;;;;5053240;28;20236;-65
2022/03/16 05:31:28;;;;;;;7.50;5.90;;;3.90;99.90;;;;;;5053222;28;20196;-65
2022/03/16 05:33:55;;;;;;;7.00;5.97;;;3.90;99.90;;;;;;5052831;28;20745;-65
2022/03/16 05:36:21;;;;;;;8.75;5.75;;;3.80;99.90;;;;;;5053580;28;20228;-65
2022/03/16 05:38:48;;;;;;;7.68;5.93;;;3.80;99.90;;;;;;5053471;28;20231;-67
2022/03/16 05:41:16;;;;;;;8.13;5.90;;;3.80;99.90;;;;;;5056770;28;20247;-67
2022/03/16 05:43:43;;;;;;;7.65;5.50;;;3.80;99.90;;;;;;5056858;28;20204;-71
2022/03/16 05:46:10;;;;;;;7.90;5.57;;;3.80;99.90;;;;;;5056869;28;20200;-71
2022/03/16 05:48:38;;;;;;;7.70;5.22;;;3.80;99.90;;;;;;5056581;28;20710;-72
2022/03/16 05:51:05;;;;;;;6.35;4.60;;;3.80;99.90;;;;;;5056851;28;20240;-72
2022/03/16 05:53:32;;;;;;;5.20;4.65;;;3.80;99.90;;;;;;5056659;28;20205;-72
2022/03/16 05:55:59;;;;;;;5.20;4.45;;;3.80;99.90;;;;;;5056638;28;20270;-73
2022/03/16 05:58:26;;;;;;;5.88;4.40;;;3.80;99.90;;;;;;5056795;28;20235;-68
2022/03/16 06:00:53;;;;;;;4.50;4.10;;;3.80;99.90;;;;;;5056722;28;20201;-69
2022/03/16 06:03:20;;;;;;;4.25;3.88;;;3.80;99.90;;;;;;5056317;28;20671;-67
2022/03/16 06:05:48;;;;;;;4.25;3.85;;;3.80;99.90;;;;;;5056760;28;20259;-67
2022/03/16 06:08:15;;;;;;;4.07;3.75;;;3.80;99.90;;;;;;5056485;28;20201;-68
2022/03/16 06:10:42;;;;;;;5.13;3.83;;;3.80;99.90;;;;;;5056018;28;20635;-68
2022/03/16 06:13:09;;;;;;;4.68;3.63;;;3.90;99.90;;;;;;5056263;28;20232;-67
2022/03/16 06:15:40;;;;;;;4.82;3.97;;;3.90;99.90;;;;;;5056496;28;20260;-67
2022/03/16 06:18:07;;;;;;;4.03;3.60;;;3.90;99.90;;;;;;5056261;28;20236;-67
2022/03/16 06:20:35;;;;;;;4.22;3.83;;;3.90;99.90;;;;;;5056290;28;20207;-67
2022/03/16 06:23:05;;;;;;;3.80;3.50;;;3.90;99.90;;;;;;5055814;28;20209;-67
2022/03/16 06:25:32;;;;;;;4.10;3.70;;;4.00;99.90;;;;;;5055806;28;20227;-67
2022/03/16 10:59:54;;;;;;;11.13;9.40;;;11.40;99.90;;;;;;5936741;22;21377;-66
2022/03/16 11:02:29;;;;;;;8.80;7.90;;;11.50;99.90;;;;;;5055280;28;20207;-67
2022/03/16 11:04:57;;;;;;;9.73;8.23;;;11.50;99.90;;;;;;5055438;28;20189;-67
2022/03/16 11:07:26;;;;;;;12.30;9.55;;;11.60;99.90;;;;;;5055551;28;20727;-68
2022/03/16 11:09:56;;;;;;;15.30;11.63;;;11.60;99.90;;;;;;5054928;28;20216;-67
2022/03/16 11:15:11;;;;;;;12.27;9.98;;;11.50;99.90;;;;;;5058569;28;20208;-67
2022/03/16 11:17:39;;;;;;;13.52;10.63;;;11.50;99.90;;;;;;5059291;28;20189;-67
2022/03/16 11:20:09;;;;;;;11.38;9.25;;;11.50;99.90;;;;;;5058852;28;20221;-67
2022/03/16 11:24:15;;;;;;;12.32;10.10;;;11.60;99.90;;;;;;5059217;28;20208;-67
2022/03/16 11:25:40;;;;;;;15.43;10.68;;;11.60;99.90;;;;;;5059313;28;20689;-68
2022/03/16 11:28:15;;;;;;;16.38;10.18;;;11.60;99.90;;;;;;5058939;28;20188;-68
2022/03/16 11:30:44;;;;;;;12.15;9.70;;;11.60;99.90;;;;;;5059132;28;20246;-67
2022/03/16 11:33:16;;;;;;;11.45;9.18;;;11.70;99.90;;;;;;5058817;28;20200;-67
2022/03/16 11:35:45;;;;;;;14.30;10.57;;;11.80;99.90;;;;;;5058465;28;20201;-67
2022/03/16 11:38:14;;;;;;;12.25;9.70;;;11.80;99.90;;;;;;5057944;28;20208;-68
2022/03/16 11:40:44;;;;;;;11.77;9.65;;;11.80;99.90;;;;;;5054699;28;20279;-69
2022/03/16 11:43:23;;;;;;;11.82;9.55;;;11.90;99.90;;;;;;5054217;28;20628;-69
2022/03/16 11:45:54;;;;;;;10.82;8.98;;;11.90;99.90;;;;;;5054177;28;20517;-69
2022/03/16 11:48:39;;;;;;;10.40;8.93;;;11.90;99.90;;;;;;5054391;28;20189;-69
2022/03/16 11:51:20;;;;;;;12.60;9.68;;;12.00;99.90;;;;;;5054315;28;20278;-69
2022/03/16 11:54:13;;;;;;;13.15;9.30;;;11.90;99.90;;;;;;5054361;28;20622;-69
2022/03/16 11:56:53;;;;;;;12.65;9.70;;;11.90;99.90;;;;;;5058080;28;20205;-69
2022/03/16 11:59:40;;;;;;;9.52;8.60;;;12.00;99.90;;;;;;5058093;28;20250;-69
2022/03/16 12:02:20;;;;;;;12.55;9.10;;;12.10;99.90;;;;;;5058297;28;20212;-68
2022/03/16 12:04:49;;;;;;;12.82;9.90;;;12.10;99.90;;;;;;5055813;28;20242;-68
2022/03/16 12:07:19;;;;;;;11.65;9.38;;;12.10;99.90;;;;;;5056235;28;20594;-68
2022/03/16 12:09:50;;;;;;;12.13;9.77;;;12.00;99.90;;;;;;5056483;28;20227;-67
2022/03/16 12:15:31;;;;;;;16.52;10.57;;;11.90;99.90;;;;;;5057070;28;20537;-67
2022/03/16 12:18:39;;;;;;;12.20;10.13;;;11.80;99.90;;;;;;5043491;28;20619;-68
2022/03/16 12:21:10;;;;;;;13.27;9.23;;;11.70;99.90;;;;;;5055981;28;20247;-68
2022/03/16 12:23:58;;;;;;;10.95;8.90;;;11.70;99.90;;;;;;5054119;28;20195;-68
2022/03/16 12:26:27;;;;;;;12.30;9.25;;;11.80;99.90;;;;;;5053703;28;20283;-68
2022/03/16 12:29:07;;;;;;;14.15;10.15;;;11.80;99.90;;;;;;5053779;28;20615;-68
2022/03/16 12:31:42;;;;;;;11.23;9.65;;;11.80;99.90;;;;;;5053783;28;20216;-68
2022/03/16 12:34:15;;;;;;;11.55;9.85;;;11.70;99.90;;;;;;5053552;28;20279;-68
2022/03/16 12:36:42;;;;;;;11.80;9.65;;;11.60;99.90;;;;;;5053367;28;20699;-67
2022/03/16 12:39:12;;;;;;;11.95;9.13;;;11.50;99.90;;;;;;5053488;28;20295;-67
2022/03/16 12:44:24;;;;;;;14.60;9.40;;;11.60;99.90;;;;;;5053400;28;20191;-67
2022/03/16 12:47:01;;;;;;;12.68;9.18;;;11.60;99.90;;;;;;5053302;28;20287;-67
2022/03/16 12:49:30;;;;;;;13.90;9.73;;;11.70;99.90;;;;;;5053124;28;20185;-67
2022/03/16 12:51:59;;;;;;;11.85;9.18;;;11.60;99.90;;;;;;5053096;28;20231;-67
2022/03/16 12:54:30;;;;;;;13.38;10.30;;;11.70;99.90;;;;;;5053086;28;20208;-68
2022/03/16 12:57:01;;;;;;;13.13;9.65;;;11.70;99.90;;;;;;5053353;28;20307;-68
2022/03/16 12:59:30;;;;;;;13.48;9.27;;;11.60;99.90;;;;;;5053283;28;20189;-67
2022/03/16 13:01:58;;;;;;;11.75;9.20;;;11.60;99.90;;;;;;5053197;28;20278;-68
2022/03/16 13:04:26;;;;;;;15.05;11.40;;;11.60;99.90;;;;;;5053600;28;20200;-67
2022/03/16 13:06:56;;;;;;;16.17;11.55;;;11.50;99.90;;;;;;5053340;28;20262;-68
2022/03/16 13:09:27;;;;;;;13.88;10.57;;;11.40;99.90;;;;;;5053398;28;20201;-67
2022/03/16 13:12:03;;;;;;;15.50;11.13;;;11.40;99.90;;;;;;5053323;28;20196;-67
2022/03/16 13:14:31;;;;;;;13.55;10.45;;;11.40;99.90;;;;;;5052778;28;20623;-67
2022/03/16 13:16:58;;;;;;;12.40;9.60;;;11.40;99.90;;;;;;5053035;28;20286;-67
2022/03/16 13:19:30;;;;;;;13.93;10.25;;;11.40;99.90;;;;;;5053091;28;20205;-67
2022/03/16 13:22:04;;;;;;;15.40;11.32;;;11.30;99.90;;;;;;5052911;28;20527;-68
2022/03/16 13:24:32;;;;;;;13.50;9.85;;;11.30;99.90;;;;;;5053136;28;20222;-68
2022/03/16 13:27:00;;;;;;;13.60;10.48;;;11.30;99.90;;;;;;5052470;28;20567;-68
2022/03/16 13:29:28;;;;;;;15.10;11.27;;;11.30;99.90;;;;;;5052265;28;20695;-67
2022/03/16 13:31:57;;;;;;;15.25;10.80;;;11.40;99.90;;;;;;5052704;28;20205;-67
2022/03/16 13:34:26;;;;;;;14.75;10.68;;;11.30;99.90;;;;;;5052582;28;20663;-68
2022/03/16 13:36:54;;;;;;;18.80;11.43;;;11.40;99.90;;;;;;5052819;28;20585;-68
2022/03/16 13:39:27;;;;;;;16.98;11.73;;;11.40;99.90;;;;;;5052899;28;20203;-68
2022/03/16 13:42:15;;;;;;;12.98;10.30;;;11.40;99.90;;;;;;5052826;28;20181;-68
2022/03/16 13:44:45;;;;;;;13.98;11.10;;;11.40;99.90;;;;;;5052770;28;20185;-68
2022/03/16 13:47:27;;;;;;;15.90;11.18;;;11.40;99.90;;;;;;5053799;28;20193;-68
2022/03/16 13:49:56;;;;;;;11.70;9.25;;;11.40;99.90;;;;;;5053026;28;20224;-68
2022/03/16 13:52:27;;;;;;;12.18;9.73;;;11.40;99.90;;;;;;5052731;28;20200;-68
2022/03/16 13:55:07;;;;;;;11.77;9.93;;;11.40;99.90;;;;;;5052480;28;20637;-67
2022/03/16 13:57:41;;;;;;;13.55;9.77;;;11.40;99.90;;;;;;5052804;28;20211;-67
2022/03/16 14:00:10;;;;;;;17.13;10.10;;;11.40;99.90;;;;;;5053971;28;20228;-67
2022/03/16 14:02:37;;;;;;;11.30;9.10;;;11.40;99.90;;;;;;5056224;28;20209;-67
2022/03/16 14:05:06;;;;;;;12.43;9.57;;;11.40;99.90;;;;;;5056521;28;20200;-68
2022/03/16 14:07:39;;;;;;;16.40;10.60;;;11.40;99.90;;;;;;5056469;28;20284;-67
2022/03/16 14:10:10;;;;;;;13.60;10.10;;;11.40;99.90;;;;;;5056544;28;20228;-68
2022/03/16 14:12:39;;;;;;;12.27;9.57;;;11.30;99.90;;;;;;5056424;28;20268;-68
2022/03/16 14:15:08;;;;;;;10.93;8.80;;;11.30;99.90;;;;;;5056433;28;20203;-67
2022/03/16 14:17:55;;;;;;;11.48;9.23;;;11.30;99.90;;;;;;5055877;28;20649;-67
2022/03/16 14:20:28;;;;;;;13.68;10.55;;;11.30;99.90;;;;;;5055753;28;20690;-68
2022/03/16 14:22:56;;;;;;;16.98;10.23;;;11.20;99.90;;;;;;5056105;28;20185;-68
2022/03/16 14:25:26;;;;;;;10.98;8.82;;;11.10;99.90;;;;;;5056183;28;20200;-68
2022/03/16 14:27:55;;;;;;;15.15;10.30;;;11.20;99.90;;;;;;5055911;28;20204;-68
2022/03/16 14:30:24;;;;;;;15.13;10.73;;;11.20;99.90;;;;;;5055579;28;20723;-68
2022/03/16 14:32:52;;;;;;;13.77;9.95;;;11.20;99.90;;;;;;5055702;28;20706;-68
2022/03/16 14:35:21;;;;;;;12.25;9.93;;;11.10;99.90;;;;;;5055545;28;20200;-68
2022/03/16 14:37:50;;;;;;;11.60;9.30;;;11.20;99.90;;;;;;5055486;28;20650;-68
2022/03/16 14:40:22;;;;;;;12.68;9.68;;;11.20;99.90;;;;;;5055701;28;20225;-68
2022/03/16 14:42:51;;;;;;;16.90;9.18;;;11.20;99.90;;;;;;5055885;28;20259;-68
2022/03/16 14:45:19;;;;;;;13.80;9.57;;;11.20;99.90;;;;;;5056252;28;20181;-65
2022/03/16 14:47:46;;;;;;;10.75;8.45;;;11.20;99.90;;;;;;5055692;28;20192;-66
2022/03/16 14:50:13;;;;;;;11.68;8.90;;;11.30;99.90;;;;;;5055563;28;20220;-65
2022/03/16 14:52:40;;;;;;;10.23;8.65;;;11.20;99.90;;;;;;5055544;28;20295;-66
2022/03/16 14:55:09;;;;;;;12.18;8.50;;;11.20;99.90;;;;;;5055466;28;20287;-68
2022/03/16 14:57:36;;;;;;;11.50;7.97;;;11.20;99.90;;;;;;5054894;28;20321;-68
2022/03/16 15:00:07;;;;;;;13.40;9.52;;;11.20;99.90;;;;;;5055351;28;20228;-67
2022/03/16 15:02:35;;;;;;;13.93;10.23;;;11.20;99.90;;;;;;5056036;28;20204;-67
2022/03/16 15:05:03;;;;;;;13.52;9.88;;;11.00;99.90;;;;;;5060307;28;20224;-67
2022/03/16 15:07:30;;;;;;;13.98;9.35;;;10.90;99.90;;;;;;5059841;28;20192;-67
2022/03/16 15:09:58;;;;;;;19.85;11.48;;;10.90;99.90;;;;;;5059392;28;20221;-67
2022/03/16 15:12:27;;;;;;;16.55;11.40;;;10.80;99.90;;;;;;5059200;28;20567;-67
2022/03/16 15:14:57;;;;;;;17.15;11.73;;;10.80;99.90;;;;;;5059036;28;20228;-67
2022/03/16 15:17:25;;;;;;;26.00;14.82;;;10.80;99.90;;;;;;5055040;28;20258;-67
2022/03/16 15:19:52;;;;;;;21.65;14.98;;;10.60;99.90;;;;;;5054831;28;20303;-67
2022/03/16 15:22:21;;;;;;;21.33;14.13;;;10.50;99.90;;;;;;5054934;28;20226;-67
2022/03/16 15:24:48;;;;;;;22.42;14.35;;;10.50;99.90;;;;;;5054841;28;20201;-67
2022/03/16 15:27:15;;;;;;;23.98;15.52;;;10.40;99.90;;;;;;5054804;28;20197;-68
2022/03/16 15:29:42;;;;;;;24.27;15.38;;;10.30;99.90;;;;;;5054608;28;20200;-67
2022/03/16 15:32:10;;;;;;;24.67;16.70;;;10.10;99.90;;;;;;5054722;28;20208;-67
2022/03/16 15:34:39;;;;;;;29.13;17.75;;;10.00;99.90;;;;;;5054332;28;20219;-67
2022/03/16 15:37:07;;;;;;;29.83;17.60;;;9.80;99.90;;;;;;5054193;28;20212;-67
2022/03/16 15:39:35;;;;;;;26.85;17.20;;;9.80;99.90;;;;;;5054189;28;20208;-67
2022/03/16 15:44:50;;;;;;;28.70;17.42;;;9.60;99.90;;;;;;5054235;28;20208;-67
2022/03/16 15:47:18;;;;;;;26.42;17.20;;;9.40;99.90;;;;;;5054611;28;20668;-67
2022/03/16 15:49:49;;;;;;;30.35;17.48;;;9.30;99.90;;;;;;5054199;28;20717;-67
2022/03/16 15:52:15;;;;;;;26.40;16.45;;;9.20;99.90;;;;;;5054461;28;20276;-67
2022/03/16 15:54:42;;;;;;;28.77;17.17;;;9.10;99.90;;;;;;5054243;28;20211;-67
2022/03/16 15:57:09;;;;;;;32.20;17.42;;;9.00;99.90;;;;;;5054114;28;20238;-67
2022/03/16 15:59:36;;;;;;;25.88;16.08;;;8.90;99.90;;;;;;5053977;28;20296;-67
2022/03/16 16:02:05;;;;;;;27.95;17.80;;;8.80;99.90;;;;;;5053821;28;20672;-67
2022/03/16 16:04:32;;;;;;;24.75;16.70;;;8.80;99.90;;;;;;5054057;28;20205;-67
2022/03/16 16:07:00;;;;;;;26.92;16.65;;;8.70;99.90;;;;;;5053788;28;20207;-67
2022/03/16 16:09:28;;;;;;;25.20;16.48;;;8.70;99.90;;;;;;5053622;28;20300;-67
2022/03/16 16:11:56;;;;;;;23.52;14.88;;;8.70;99.90;;;;;;5053956;28;20270;-67
2022/03/16 16:14:23;;;;;;;21.73;15.55;;;8.70;99.90;;;;;;5053849;28;20204;-67
2022/03/16 16:16:51;;;;;;;24.85;15.02;;;8.60;99.90;;;;;;5053557;28;20296;-67
2022/03/16 16:19:18;;;;;;;23.75;14.43;;;8.60;99.90;;;;;;5053915;28;20216;-67
2022/03/16 16:21:47;;;;;;;25.00;14.68;;;8.60;99.90;;;;;;5053512;28;20586;-67
2022/03/16 16:24:15;;;;;;;23.65;14.63;;;8.60;99.90;;;;;;5053360;28;20296;-67
2022/03/16 16:26:42;;;;;;;25.02;16.08;;;8.50;99.90;;;;;;5053574;28;20291;-67
2022/03/16 16:29:10;;;;;;;21.55;14.93;;;8.50;99.90;;;;;;5053659;28;20292;-67
2022/03/16 16:31:37;;;;;;;25.58;15.07;;;8.50;99.90;;;;;;5053504;28;20648;-67
2022/03/16 16:34:04;;;;;;;21.45;14.00;;;8.50;99.90;;;;;;5053535;28;20204;-67
2022/03/16 16:36:32;;;;;;;24.60;14.80;;;8.50;99.90;;;;;;5054078;28;20288;-67
2022/03/16 16:38:59;;;;;;;24.40;14.68;;;8.50;99.90;;;;;;5053528;28;20667;-67
2022/03/16 16:41:28;;;;;;;19.60;13.93;;;8.50;99.90;;;;;;5053739;28;20235;-67
2022/03/16 16:43:55;;;;;;;20.17;14.07;;;8.50;99.90;;;;;;5054738;28;20291;-67
2022/03/16 16:46:23;;;;;;;25.00;15.02;;;8.50;99.90;;;;;;5055006;28;20235;-67
2022/03/16 16:48:50;;;;;;;24.05;15.18;;;8.50;99.90;;;;;;5053443;28;20197;-67
2022/03/16 16:51:18;;;;;;;21.48;13.77;;;8.40;99.90;;;;;;5053592;28;20225;-67
2022/03/16 16:53:46;;;;;;;20.77;14.07;;;8.50;99.90;;;;;;5053249;28;20196;-67
2022/03/16 16:56:15;;;;;;;21.85;14.32;;;8.50;99.90;;;;;;5053448;28;20239;-68
2022/03/16 16:58:46;;;;;;;19.95;14.35;;;8.50;99.90;;;;;;5053874;28;20232;-68
2022/03/16 17:01:14;;;;;;;21.60;13.23;;;8.50;99.90;;;;;;5053241;28;20282;-68
2022/03/16 17:03:41;;;;;;;20.73;14.85;;;8.50;99.90;;;;;;5052911;28;20207;-68
2022/03/16 17:06:11;;;;;;;21.40;15.27;;;8.50;99.90;;;;;;5053517;28;20295;-69
2022/03/16 17:08:39;;;;;;;19.63;12.95;;;8.50;99.90;;;;;;5052947;28;20664;-68
2022/03/16 17:11:06;;;;;;;21.48;12.75;;;8.50;99.90;;;;;;5053264;28;20221;-68
2022/03/16 17:13:33;;;;;;;19.40;13.60;;;8.50;99.90;;;;;;5053099;28;20203;-68
2022/03/16 17:16:01;;;;;;;22.83;12.52;;;8.50;99.90;;;;;;5053121;28;20228;-68
2022/03/16 17:18:29;;;;;;;19.58;12.60;;;8.50;99.90;;;;;;5052607;28;20220;-68
2022/03/16 17:20:59;;;;;;;18.15;12.88;;;8.50;99.90;;;;;;5053189;28;20634;-68
2022/03/16 17:23:27;;;;;;;21.25;13.80;;;8.50;99.90;;;;;;5054153;28;20185;-68
2022/03/16 17:25:55;;;;;;;20.23;13.35;;;8.50;99.90;;;;;;5054085;28;20203;-68
2022/03/16 17:28:22;;;;;;;18.25;13.20;;;8.50;99.90;;;;;;5053428;28;20216;-68
2022/03/16 17:30:50;;;;;;;16.35;12.40;;;8.40;99.90;;;;;;5052907;28;20225;-68
2022/03/16 17:33:19;;;;;;;18.00;12.60;;;8.40;99.90;;;;;;5052928;28;20222;-68
2022/03/16 17:35:48;;;;;;;20.80;13.40;;;8.40;99.90;;;;;;5055307;28;20226;-68
2022/03/16 17:38:16;;;;;;;22.10;14.45;;;8.40;99.90;;;;;;5056521;28;20216;-68
2022/03/16 17:40:43;;;;;;;18.58;12.65;;;8.40;99.90;;;;;;5056638;28;20224;-68
2022/03/16 17:45:55;;;;;;;22.83;13.70;;;8.40;99.90;;;;;;5056805;28;20176;-68
2022/03/16 17:48:25;;;;;;;24.23;14.02;;;8.40;99.90;;;;;;5056878;28;20279;-68
2022/03/16 17:50:53;;;;;;;19.55;14.27;;;8.30;99.90;;;;;;5056329;28;20226;-68
2022/03/16 17:53:23;;;;;;;19.67;13.15;;;8.30;99.90;;;;;;5056335;28;20659;-68
2022/03/16 17:58:36;;;;;;;19.23;13.27;;;8.20;99.90;;;;;;5056510;28;20251;-69
2022/03/16 18:01:03;;;;;;;16.95;12.82;;;8.20;99.90;;;;;;5055782;28;20599;-67
2022/03/16 18:03:31;;;;;;;14.73;11.63;;;8.20;99.90;;;;;;5056182;28;20228;-68
2022/03/16 18:05:58;;;;;;;13.88;11.02;;;8.30;99.90;;;;;;5056469;28;20240;-69
2022/03/16 18:08:26;;;;;;;18.25;12.98;;;8.30;99.90;;;;;;5056848;28;20251;-68
2022/03/16 18:13:42;;;;;;;17.92;13.23;;;8.20;99.90;;;;;;5056149;28;20180;-70
2022/03/16 18:16:09;;;;;;;21.20;14.77;;;8.20;99.90;;;;;;5056232;28;20204;-75
2022/03/16 18:18:41;;;;;;;17.70;13.25;;;8.20;99.90;;;;;;5056141;28;20239;-75
2022/03/16 18:21:08;;;;;;;17.58;13.38;;;8.20;99.90;;;;;;5056008;28;20225;-74
2022/03/16 18:23:37;;;;;;;21.00;14.15;;;8.20;99.90;;;;;;5056286;28;20196;-73
2022/03/16 18:26:04;;;;;;;18.92;13.60;;;8.10;99.90;;;;;;5056056;28;20204;-75
2022/03/16 18:28:32;;;;;;;15.52;11.50;;;8.10;99.90;;;;;;5055726;28;20730;-76
2022/03/16 18:31:00;;;;;;;15.88;11.93;;;8.10;99.90;;;;;;5055867;28;20315;-74
2022/03/16 18:33:28;;;;;;;14.23;11.13;;;8.10;99.90;;;;;;5055945;28;20196;-75
2022/03/16 18:35:56;;;;;;;12.70;9.88;;;8.10;99.90;;;;;;5055956;28;20252;-75
2022/03/16 18:38:24;;;;;;;15.60;11.18;;;8.10;99.90;;;;;;5055528;28;20695;-75
2022/03/16 18:40:52;;;;;;;12.07;10.23;;;8.10;99.90;;;;;;5055844;28;20251;-74
2022/03/16 18:43:19;;;;;;;11.07;8.93;;;8.00;99.90;;;;;;5055723;28;20207;-75
2022/03/16 18:45:46;;;;;;;10.00;7.88;;;8.00;99.90;;;;;;5054945;28;20207;-75
2022/03/16 18:48:14;;;;;;;9.85;8.52;;;8.00;99.90;;;;;;5055567;28;20193;-75
2022/03/16 18:50:43;;;;;;;8.88;7.72;;;7.90;99.90;;;;;;5055440;28;20224;-74
2022/03/16 18:53:14;;;;;;;8.00;6.78;;;7.80;99.90;;;;;;5055116;28;20244;-75
2022/03/16 18:55:42;;;;;;;7.57;6.53;;;7.80;99.90;;;;;;5055222;28;20684;-75
2022/03/16 18:58:09;;;;;;;6.95;6.25;;;7.80;99.90;;;;;;5055087;28;20220;-72
2022/03/16 19:00:39;;;;;;;6.90;6.20;;;7.80;99.90;;;;;;5055336;28;20248;-73
2022/03/16 19:03:06;;;;;;;7.00;5.75;;;7.70;99.90;;;;;;5055340;28;20204;-72
2022/03/16 19:05:35;;;;;;;7.28;6.10;;;7.70;99.90;;;;;;5055232;28;20204;-74
2022/03/16 19:08:03;;;;;;;6.32;5.72;;;7.70;99.90;;;;;;5055081;28;20650;-74
2022/03/16 19:10:32;;;;;;;6.55;5.95;;;7.60;99.90;;;;;;5055169;28;20227;-75
2022/03/16 19:15:43;;;;;;;5.20;4.80;;;7.60;99.90;;;;;;5055329;28;20260;-72
2022/03/16 19:18:11;;;;;;;4.93;4.53;;;7.60;99.90;;;;;;5054925;28;20295;-72
2022/03/16 19:20:37;;;;;;;5.03;4.63;;;7.60;99.90;;;;;;5054949;28;20228;-71
2022/03/16 19:23:05;;;;;;;5.13;4.65;;;7.60;99.90;;;;;;5055087;28;20200;-72
2022/03/16 19:25:33;;;;;;;5.15;4.65;;;7.60;99.90;;;;;;5054915;28;20671;-73
2022/03/16 19:28:04;;;;;;;4.68;4.30;;;7.50;99.90;;;;;;5055058;28;20192;-73
2022/03/16 19:30:31;;;;;;;5.07;4.68;;;7.60;99.90;;;;;;5054964;28;20227;-74
2022/03/16 19:32:58;;;;;;;4.90;4.38;;;7.50;99.90;;;;;;5054916;28;20204;-75
2022/03/16 19:35:27;;;;;;;16.65;10.63;;;7.60;99.90;;;;;;5055157;28;20564;-75
2022/03/16 19:37:55;;;;;;;13.68;10.50;;;7.50;99.90;;;;;;5054651;28;20643;-75
2022/03/16 19:40:23;;;;;;;12.40;9.70;;;7.50;99.90;;;;;;5054578;28;20221;-74
2022/03/16 19:42:52;;;;;;;17.20;11.52;;;7.50;99.90;;;;;;5055260;28;20200;-72
2022/03/16 19:45:19;;;;;;;14.75;10.95;;;7.50;99.90;;;;;;5054554;28;20304;-71
2022/03/16 19:47:46;;;;;;;18.00;12.70;;;7.50;99.90;;;;;;5054697;28;20196;-71
2022/03/16 19:50:13;;;;;;;13.82;11.32;;;7.50;99.90;;;;;;5054186;28;20566;-72
2022/03/16 19:52:40;;;;;;;13.77;10.93;;;7.50;99.90;;;;;;5054522;28;20227;-74
2022/03/16 19:55:09;;;;;;;12.25;10.23;;;7.50;99.90;;;;;;5054159;28;20563;-72
2022/03/16 19:57:36;;;;;;;12.73;10.02;;;7.50;99.90;;;;;;5053475;28;20201;-73
2022/03/16 20:00:07;;;;;;;9.60;8.10;;;7.50;99.90;;;;;;5054212;28;20311;-74
2022/03/16 20:02:34;;;;;;;10.25;8.23;;;7.40;99.90;;;;;;5053926;28;20213;-71
2022/03/16 20:05:01;;;;;;;9.40;7.88;;;7.40;99.90;;;;;;5054257;28;20287;-74
2022/03/16 20:07:28;;;;;;;7.15;6.45;;;7.40;99.90;;;;;;5054363;28;20227;-75
2022/03/16 20:09:56;;;;;;;10.65;8.50;;;7.40;99.90;;;;;;5054182;28;20212;-73
2022/03/16 20:12:25;;;;;;;10.05;8.60;;;7.30;99.90;;;;;;5053860;28;20545;-73
2022/03/16 20:14:55;;;;;;;9.90;8.13;;;7.40;99.90;;;;;;5054088;28;20272;-73
2022/03/16 20:17:24;;;;;;;7.47;6.72;;;7.40;99.90;;;;;;5054072;28;20656;-73
2022/03/16 20:19:50;;;;;;;9.15;7.35;;;7.40;99.90;;;;;;5054123;28;20235;-73
2022/03/16 20:22:18;;;;;;;9.50;7.50;;;7.40;99.90;;;;;;5054155;28;20205;-73
2022/03/16 20:24:46;;;;;;;8.65;7.20;;;7.30;99.90;;;;;;5053940;28;20287;-73
2022/03/16 20:27:13;;;;;;;8.18;7.00;;;7.30;99.90;;;;;;5054006;28;20256;-73
2022/03/16 20:29:39;;;;;;;7.03;6.32;;;7.30;99.90;;;;;;5053553;28;20660;-73
2022/03/16 20:32:07;;;;;;;7.85;7.05;;;7.30;99.90;;;;;;5053905;28;20204;-73
2022/03/16 20:34:36;;;;;;;8.20;6.80;;;7.20;99.90;;;;;;5053829;28;20222;-73
2022/03/16 20:37:03;;;;;;;10.38;7.68;;;7.20;99.90;;;;;;5054312;28;20205;-70
2022/03/16 20:39:30;;;;;;;9.18;7.72;;;7.20;99.90;;;;;;5053201;28;20221;-73
2022/03/16 20:41:56;;;;;;;13.48;8.77;;;7.20;99.90;;;;;;5054432;28;20226;-75
2022/03/16 20:44:25;;;;;;;9.50;7.68;;;7.20;99.90;;;;;;5053797;28;20227;-74
2022/03/16 20:46:52;;;;;;;9.65;7.03;;;7.20;99.90;;;;;;5052982;28;20589;-71
2022/03/16 20:49:19;;;;;;;7.95;7.15;;;7.20;99.90;;;;;;5053450;28;20209;-71
2022/03/16 20:51:47;;;;;;;6.30;5.70;;;7.20;99.90;;;;;;5053599;28;20228;-73
2022/03/16 20:54:14;;;;;;;8.05;7.00;;;7.20;99.90;;;;;;5053234;28;20690;-73
2022/03/16 20:56:41;;;;;;;6.57;5.97;;;7.10;99.90;;;;;;5054247;28;20211;-72
2022/03/16 21:01:53;;;;;;;6.40;5.80;;;7.10;99.90;;;;;;5053275;28;20567;-68
2022/03/16 21:04:19;;;;;;;8.10;6.57;;;7.00;99.90;;;;;;5053484;28;20210;-68
2022/03/16 21:06:48;;;;;;;5.55;5.05;;;7.00;99.90;;;;;;5053478;28;20295;-71
2022/03/16 21:09:15;;;;;;;5.50;5.00;;;6.90;99.90;;;;;;5056487;28;20287;-71
2022/03/16 21:11:44;;;;;;;5.78;5.28;;;6.90;99.90;;;;;;5060250;28;20287;-72
2022/03/16 21:14:12;;;;;;;5.90;5.30;;;6.90;99.90;;;;;;5060229;28;20540;-72
2022/03/16 21:16:39;;;;;;;5.60;5.10;;;6.80;99.90;;;;;;5059989;28;20203;-72
2022/03/16 21:19:07;;;;;;;5.13;4.75;;;6.80;99.90;;;;;;5060025;28;20694;-73
2022/03/16 21:21:34;;;;;;;5.70;5.20;;;6.70;99.90;;;;;;5059837;28;20224;-73
2022/03/16 21:24:04;;;;;;;5.28;4.82;;;6.70;99.90;;;;;;5059622;28;20590;-69
2022/03/16 21:26:34;;;;;;;4.53;4.22;;;6.70;99.90;;;;;;5059824;28;20200;-69
2022/03/16 21:29:01;;;;;;;4.72;4.32;;;6.60;99.90;;;;;;5060018;28;20181;-72
2022/03/16 21:31:28;;;;;;;5.00;4.60;;;6.60;99.90;;;;;;5059521;28;20700;-72
2022/03/16 21:33:57;;;;;;;5.20;4.70;;;6.50;99.90;;;;;;5059707;28;20196;-72
2022/03/16 21:36:24;;;;;;;4.55;4.20;;;6.40;99.90;;;;;;5059657;28;20575;-72
2022/03/16 21:38:51;;;;;;;4.88;4.47;;;6.40;99.90;;;;;;5059152;28;20243;-72
2022/03/16 21:46:45;;;;;;;4.55;4.15;;;6.30;99.90;;;;;;5059034;28;20192;-69
2022/03/16 21:49:18;;;;;;;4.55;4.25;;;6.30;99.90;;;;;;5060033;28;20202;-73
2022/03/16 21:51:45;;;;;;;3.92;3.63;;;6.30;99.90;;;;;;5059487;28;20217;-73
2022/03/16 21:54:14;;;;;;;4.10;3.80;;;6.20;99.90;;;;;;5059083;28;20580;-73
2022/03/16 21:56:42;;;;;;;4.70;4.30;;;6.20;99.90;;;;;;5059400;28;20196;-73
2022/03/16 21:59:09;;;;;;;3.92;3.63;;;6.20;99.90;;;;;;5059387;28;20279;-73
2022/03/16 22:01:39;;;;;;;4.90;4.50;;;6.20;99.90;;;;;;5059171;28;20349;-72
2022/03/16 22:04:06;;;;;;;3.95;3.65;;;6.20;99.90;;;;;;5059376;28;20254;-73
2022/03/16 22:06:33;;;;;;;5.10;4.70;;;6.20;99.90;;;;;;5059501;28;20223;-73
2022/03/16 22:08:59;;;;;;;4.20;3.90;;;6.10;99.90;;;;;;5059369;28;20206;-73
2022/03/16 22:11:26;;;;;;;4.07;3.78;;;6.10;99.90;;;;;;5059323;28;20328;-73
2022/03/16 22:13:54;;;;;;;4.32;3.92;;;6.10;99.90;;;;;;5059322;28;20200;-71
2022/03/16 22:16:21;;;;;;;4.07;3.80;;;6.10;99.90;;;;;;5059313;28;20201;-71
2022/03/16 22:18:48;;;;;;;4.50;4.10;;;6.00;99.90;;;;;;5059704;28;20314;-71
2022/03/16 22:21:28;;;;;;;4.35;4.05;;;6.10;99.90;;;;;;5056565;28;20252;-71
2022/03/16 22:23:57;;;;;;;4.78;4.38;;;6.00;99.90;;;;;;5055756;28;20224;-71
2022/03/16 22:26:26;;;;;;;4.35;4.03;;;6.00;99.90;;;;;;5055741;28;20205;-71
